Time;durP1;ratioP1;P1;durP2;ratioP2;P2;SDS_P1;SDS_P2;PMS_P1;PMS_P2;Temp;Humidity;BMP_temperature;BMP_pressure;BME280_temperature;BME280_humidity;BME280_pressure;Samples;Min_cycle;Max_cycle;Signal;HPM_P1;HPM_P2
2023/01/18 00:01:18;;;;;;;4.68;1.30;;;4.20;99.90;;;;;;4994600;28;20042;-60
2023/01/18 00:03:43;;;;;;;8.20;1.60;;;4.20;99.90;;;;;;4993813;28;20046;-60
2023/01/18 00:06:10;;;;;;;4.68;1.33;;;4.30;99.90;;;;;;5008206;28;20054;-60
2023/01/18 00:08:37;;;;;;;5.15;1.70;;;4.30;99.90;;;;;;5006439;28;20112;-60
2023/01/18 00:11:15;;;;;;;5.95;1.85;;;4.30;99.90;;;;;;4995697;28;20046;-60
2023/01/18 00:13:41;;;;;;;5.07;1.65;;;4.30;99.90;;;;;;4993269;28;20086;-60
2023/01/18 00:16:11;;;;;;;8.32;1.40;;;4.40;99.90;;;;;;4999567;28;20169;-60
2023/01/18 00:18:36;;;;;;;3.08;1.00;;;4.30;99.90;;;;;;4997020;28;20042;-60
2023/01/18 00:21:04;;;;;;;6.40;1.60;;;4.10;99.90;;;;;;4997024;28;20050;-60
2023/01/18 00:23:30;;;;;;;10.13;1.52;;;4.00;99.90;;;;;;4993182;28;20046;-60
2023/01/18 00:26:03;;;;;;;7.18;1.20;;;4.10;99.90;;;;;;4993053;28;20069;-60
2023/01/18 00:28:29;;;;;;;8.25;1.50;;;4.10;99.90;;;;;;4998639;28;20073;-60
2023/01/18 00:30:55;;;;;;;7.95;1.85;;;4.20;99.90;;;;;;4992457;28;20181;-60
2023/01/18 00:33:20;;;;;;;7.40;1.40;;;4.30;99.90;;;;;;5008373;28;20133;-60
2023/01/18 00:35:57;;;;;;;9.77;1.40;;;4.30;99.90;;;;;;4999613;28;20038;-60
2023/01/18 00:38:23;;;;;;;5.22;1.40;;;4.40;99.90;;;;;;4997764;28;20102;-60
2023/01/18 00:40:48;;;;;;;5.07;1.50;;;4.20;99.90;;;;;;5010691;28;20065;-60
2023/01/18 00:45:58;;;;;;;5.78;1.38;;;4.10;99.90;;;;;;5011551;28;20450;-60
2023/01/18 00:48:24;;;;;;;6.85;1.80;;;4.00;99.90;;;;;;5009960;28;20050;-60
2023/01/18 00:50:49;;;;;;;4.22;1.50;;;4.00;99.90;;;;;;5009260;28;20057;-61
2023/01/18 00:53:15;;;;;;;9.55;1.63;;;3.90;99.90;;;;;;4993908;28;20132;-60
2023/01/18 00:55:40;;;;;;;5.88;1.40;;;4.00;99.90;;;;;;4993605;28;20041;-60
2023/01/18 00:58:06;;;;;;;6.75;1.50;;;4.10;99.90;;;;;;5004272;28;20499;-60
2023/01/18 01:00:32;;;;;;;6.40;1.70;;;4.10;99.90;;;;;;5012127;28;20064;-60
2023/01/18 01:02:58;;;;;;;7.53;1.45;;;4.20;99.90;;;;;;5012323;28;20036;-60
2023/01/18 01:08:15;;;;;;;7.60;1.40;;;4.20;99.90;;;;;;5007241;28;20099;-60
2023/01/18 01:10:42;;;;;;;3.97;1.60;;;4.30;99.90;;;;;;5011967;28;20048;-60
2023/01/18 01:26:50;;;;;;;6.35;2.33;;;3.90;99.70;;;;;;4997429;28;20133;-61
2023/01/18 01:29:15;;;;;;;5.22;1.70;;;4.00;99.90;;;;;;5009537;28;20088;-60
2023/01/18 01:31:41;;;;;;;7.97;1.83;;;4.10;99.90;;;;;;5010844;28;20042;-60
2023/01/18 01:34:07;;;;;;;7.93;1.95;;;4.20;99.90;;;;;;5011385;28;20038;-60
2023/01/18 01:36:32;;;;;;;7.18;2.10;;;4.20;99.90;;;;;;5010492;28;20357;-60
2023/01/18 01:38:58;;;;;;;6.40;1.90;;;4.30;99.90;;;;;;5000636;28;20416;-60
2023/01/18 01:41:29;;;;;;;12.48;2.17;;;4.30;99.90;;;;;;4994878;28;20324;-60
2023/01/18 01:43:58;;;;;;;6.55;2.20;;;4.30;99.90;;;;;;4997873;28;20038;-60
2023/01/18 01:46:26;;;;;;;8.05;2.00;;;4.40;99.90;;;;;;5011793;28;20041;-60
2023/01/18 01:49:07;;;;;;;9.63;2.38;;;4.30;99.90;;;;;;4999918;28;20046;-60
2023/01/18 01:51:34;;;;;;;6.55;2.20;;;4.20;99.90;;;;;;5000695;28;20034;-61
2023/01/18 01:54:05;;;;;;;7.63;2.10;;;4.00;98.20;;;;;;5004893;28;20045;-60
2023/01/18 01:56:31;;;;;;;11.57;2.70;;;4.00;97.10;;;;;;5000775;28;20373;-60
2023/01/18 01:59:00;;;;;;;22.48;2.58;;;4.00;99.90;;;;;;5010917;28;20041;-60
2023/01/18 02:01:28;;;;;;;8.35;2.70;;;4.10;99.90;;;;;;5010878;28;20038;-60
2023/01/18 02:03:57;;;;;;;9.75;2.28;;;4.30;99.90;;;;;;5015393;28;20041;-60
2023/01/18 02:06:30;;;;;;;7.60;2.20;;;4.50;99.80;;;;;;5005439;28;20523;-60
2023/01/18 02:09:21;;;;;;;4.13;1.90;;;4.50;98.40;;;;;;4995957;28;20042;-60
2023/01/18 02:11:49;;;;;;;6.22;2.10;;;4.50;98.00;;;;;;5013686;28;20113;-60
2023/01/18 02:14:15;;;;;;;5.78;2.10;;;4.50;96.20;;;;;;5014635;28;20038;-60
2023/01/18 02:16:59;;;;;;;9.90;2.40;;;4.60;97.00;;;;;;5004974;28;20073;-60
2023/01/18 02:20:05;;;;;;;5.38;2.20;;;4.30;91.00;;;;;;5013136;28;20480;-60
2023/01/18 02:22:58;;;;;;;11.77;2.47;;;4.10;73.10;;;;;;5010445;28;20046;-60
2023/01/18 02:26:05;;;;;;;10.07;2.53;;;4.20;78.70;;;;;;5014376;28;20044;-60
2023/01/18 02:28:39;;;;;;;7.47;2.35;;;4.30;85.60;;;;;;5009586;28;20084;-60
2023/01/18 02:31:15;;;;;;;7.57;2.70;;;4.30;90.90;;;;;;5011176;28;20038;-60
2023/01/18 02:34:08;;;;;;;13.05;2.70;;;4.30;92.80;;;;;;4998228;28;20046;-61
2023/01/18 02:37:06;;;;;;;11.68;2.90;;;4.30;94.50;;;;;;5005266;28;20042;-60
2023/01/18 02:39:37;;;;;;;8.38;2.35;;;4.20;96.40;;;;;;5009607;28;20046;-60
2023/01/18 02:48:07;;;;;;;6.55;2.42;;;4.20;93.10;;;;;;4997435;28;20085;-60
2023/01/18 02:50:33;;;;;;;7.25;2.30;;;4.10;89.30;;;;;;5006729;28;20042;-60
2023/01/18 02:52:58;;;;;;;5.25;2.10;;;4.10;86.20;;;;;;5011657;28;20044;-60
2023/01/18 02:55:45;;;;;;;8.77;2.17;;;4.10;91.00;;;;;;5000201;28;20404;-60
2023/01/18 02:58:30;;;;;;;6.38;2.50;;;4.20;92.90;;;;;;4994392;28;20038;-60
2023/01/18 03:01:04;;;;;;;5.82;2.30;;;4.20;94.70;;;;;;4995686;28;20397;-60
2023/01/18 03:03:30;;;;;;;8.43;2.38;;;4.30;94.80;;;;;;5010134;28;20030;-60
2023/01/18 03:06:02;;;;;;;6.00;2.28;;;4.40;95.60;;;;;;4995085;28;20055;-60
2023/01/18 03:08:40;;;;;;;6.35;2.10;;;4.40;96.20;;;;;;4994439;28;20034;-60
2023/01/18 03:11:11;;;;;;;9.00;2.60;;;4.40;97.40;;;;;;4995540;28;20117;-60
2023/01/18 03:14:10;;;;;;;6.78;2.25;;;4.30;98.10;;;;;;5007351;28;20550;-60
2023/01/18 03:17:02;;;;;;;7.45;2.15;;;4.20;94.80;;;;;;5001629;28;20056;-60
2023/01/18 03:22:14;;;;;;;9.77;2.72;;;3.90;88.90;;;;;;4995453;28;20077;-60
2023/01/18 03:24:41;;;;;;;6.93;2.63;;;3.80;93.70;;;;;;4994230;28;20066;-60
2023/01/18 03:35:26;;;;;;;3.63;2.08;;;4.10;99.90;;;;;;5008741;28;20288;-60
2023/01/18 03:37:53;;;;;;;7.47;3.05;;;4.10;99.90;;;;;;4994793;28;20046;-60
2023/01/18 03:40:24;;;;;;;6.50;2.25;;;4.20;99.90;;;;;;4993663;28;20125;-60
2023/01/18 03:43:21;;;;;;;7.85;2.70;;;4.20;99.90;;;;;;4999357;28;20034;-60
2023/01/18 03:45:47;;;;;;;;;;;4.10;99.90;;;;;;5006549;28;20042;-60
2023/01/18 03:48:14;;;;;;;5.93;1.90;;;4.00;99.90;;;;;;5002397;28;19965;-60
2023/01/18 03:50:52;;;;;;;8.25;2.97;;;3.90;99.90;;;;;;5006013;28;20037;-60
2023/01/18 03:53:43;;;;;;;10.80;3.13;;;3.90;99.30;;;;;;5003035;28;20488;-60
2023/01/18 03:56:16;;;;;;;7.03;2.30;;;4.00;99.90;;;;;;4995726;28;20077;-60
2023/01/18 03:58:44;;;;;;;9.55;2.63;;;4.10;99.90;;;;;;4993466;28;20042;-60
2023/01/18 04:01:10;;;;;;;9.65;2.30;;;4.20;99.90;;;;;;5003409;28;20030;-60
2023/01/18 04:03:36;;;;;;;9.00;2.53;;;4.10;99.90;;;;;;5010524;28;20034;-60
2023/01/18 04:06:04;;;;;;;8.77;2.47;;;4.30;99.90;;;;;;5010502;28;20116;-60
2023/01/18 04:08:30;;;;;;;10.05;2.60;;;4.20;99.90;;;;;;5011504;28;20509;-60
2023/01/18 04:10:56;;;;;;;7.15;2.40;;;4.20;99.90;;;;;;4994400;28;20109;-60
2023/01/18 04:13:21;;;;;;;7.00;2.35;;;4.10;99.90;;;;;;5009900;28;20034;-60
2023/01/18 04:15:47;;;;;;;10.95;2.30;;;3.80;99.90;;;;;;5012129;28;20042;-60
2023/01/18 04:18:13;;;;;;;6.82;2.42;;;3.70;99.90;;;;;;5011200;28;20052;-60
2023/01/18 04:20:38;;;;;;;12.90;2.20;;;3.60;99.90;;;;;;5007489;28;20042;-60
2023/01/18 04:23:04;;;;;;;8.57;2.30;;;3.60;99.90;;;;;;5007893;28;20403;-60
2023/01/18 04:25:29;;;;;;;5.65;1.95;;;3.80;99.90;;;;;;5011958;28;20112;-60
2023/01/18 04:27:55;;;;;;;9.40;2.55;;;4.10;99.90;;;;;;5011846;28;20118;-60
2023/01/18 04:30:20;;;;;;;8.15;2.55;;;4.10;99.90;;;;;;5012720;28;20034;-60
2023/01/18 04:32:46;;;;;;;5.38;2.28;;;4.30;99.90;;;;;;5006608;28;20041;-60
2023/01/18 04:35:12;;;;;;;5.63;2.25;;;4.30;99.90;;;;;;4995962;28;20117;-60
2023/01/18 04:37:38;;;;;;;6.57;2.10;;;4.40;99.90;;;;;;4997522;28;20084;-60
2023/01/18 04:40:04;;;;;;;5.60;2.10;;;4.40;99.90;;;;;;5002465;28;20092;-60
2023/01/18 04:42:30;;;;;;;8.40;2.15;;;4.40;99.90;;;;;;5010759;28;20495;-60
2023/01/18 04:44:58;;;;;;;6.53;2.47;;;4.40;99.90;;;;;;5003043;28;20112;-60
2023/01/18 04:47:24;;;;;;;8.20;2.30;;;4.30;99.90;;;;;;5006000;28;20080;-60
2023/01/18 04:49:50;;;;;;;8.02;2.00;;;4.20;99.90;;;;;;5003766;28;20042;-60
2023/01/18 04:52:15;;;;;;;8.27;2.30;;;4.20;99.90;;;;;;4997673;28;20038;-60
2023/01/18 04:54:41;;;;;;;6.97;2.17;;;4.10;99.90;;;;;;4997820;28;20045;-60
2023/01/18 04:57:07;;;;;;;8.43;2.90;;;4.10;98.30;;;;;;5003405;28;20096;-60
2023/01/18 04:59:32;;;;;;;6.88;2.70;;;4.10;99.90;;;;;;5012120;28;20488;-60
2023/01/18 05:01:58;;;;;;;14.43;3.63;;;4.30;99.90;;;;;;5011600;28;20041;-60
2023/01/18 05:04:23;;;;;;;11.77;3.35;;;4.40;99.90;;;;;;5012106;28;20045;-60
2023/01/18 05:06:49;;;;;;;17.40;3.67;;;4.40;99.90;;;;;;5008074;28;20037;-60
2023/01/18 05:09:15;;;;;;;9.40;3.38;;;4.50;99.90;;;;;;5000731;28;20049;-60
2023/01/18 05:11:41;;;;;;;9.25;2.97;;;4.60;99.90;;;;;;4994851;28;20034;-60
2023/01/18 05:14:07;;;;;;;9.10;2.95;;;4.60;99.90;;;;;;4993902;28;20045;-60
2023/01/18 05:16:33;;;;;;;7.25;2.75;;;4.60;99.90;;;;;;5002851;28;20085;-60
2023/01/18 05:18:59;;;;;;;8.23;2.90;;;4.60;99.90;;;;;;5003880;28;20515;-60
2023/01/18 05:21:24;;;;;;;12.95;3.70;;;4.50;99.90;;;;;;5009149;28;20038;-60
2023/01/18 05:23:50;;;;;;;8.10;3.10;;;4.40;99.90;;;;;;5014320;28;20522;-60
2023/01/18 05:26:19;;;;;;;5.95;2.90;;;4.20;99.90;;;;;;5011576;28;20062;-60
2023/01/18 05:28:45;;;;;;;8.93;3.13;;;4.40;99.90;;;;;;4996178;28;20077;-60
2023/01/18 05:31:12;;;;;;;9.13;3.20;;;4.40;99.90;;;;;;4996395;28;20125;-61
2023/01/18 05:33:38;;;;;;;10.85;3.15;;;4.50;99.90;;;;;;5002783;28;20041;-60
2023/01/18 05:36:04;;;;;;;9.45;3.22;;;4.60;99.90;;;;;;5012966;28;20038;-60
2023/01/18 05:38:29;;;;;;;6.72;3.10;;;4.60;99.90;;;;;;4996085;28;20439;-60
2023/01/18 05:40:55;;;;;;;8.07;3.03;;;4.60;99.90;;;;;;5001801;28;20042;-60
2023/01/18 05:43:22;;;;;;;11.93;3.28;;;4.70;99.90;;;;;;5001236;28;20377;-60
2023/01/18 05:45:48;;;;;;;12.40;3.40;;;4.70;99.90;;;;;;5013039;28;20434;-61
2023/01/18 05:48:14;;;;;;;5.63;3.05;;;4.60;99.90;;;;;;5015008;28;20122;-60
2023/01/18 05:50:43;;;;;;;9.52;2.83;;;4.50;99.90;;;;;;5006330;28;20364;-60
2023/01/18 05:53:10;;;;;;;15.25;3.47;;;4.50;99.90;;;;;;5013120;28;20053;-60
2023/01/18 05:55:35;;;;;;;8.55;3.08;;;4.50;99.90;;;;;;4995866;28;20042;-61
2023/01/18 05:58:01;;;;;;;9.25;3.53;;;4.50;99.90;;;;;;5015251;28;20530;-60
2023/01/18 06:00:27;;;;;;;9.85;3.15;;;4.60;99.90;;;;;;5012559;28;20376;-60
2023/01/18 06:02:53;;;;;;;10.32;3.38;;;4.60;99.90;;;;;;4996085;28;20140;-60
2023/01/18 06:05:20;;;;;;;8.43;3.30;;;4.60;99.90;;;;;;5015120;28;20397;-60
2023/01/18 06:07:46;;;;;;;8.93;3.40;;;4.70;99.90;;;;;;5001538;28;20077;-60
2023/01/18 06:10:12;;;;;;;10.15;3.50;;;4.50;99.90;;;;;;5001978;28;20092;-62
2023/01/18 06:12:38;;;;;;;10.18;3.40;;;4.60;98.70;;;;;;5012662;28;20030;-60
2023/01/18 06:15:05;;;;;;;7.57;3.15;;;4.40;93.80;;;;;;5012836;28;20403;-60
2023/01/18 06:17:30;;;;;;;10.15;3.58;;;4.20;83.00;;;;;;5000865;28;20485;-60
2023/01/18 06:19:56;;;;;;;9.77;3.33;;;4.00;75.30;;;;;;5008407;28;20040;-60
2023/01/18 06:22:22;;;;;;;8.75;3.53;;;4.10;90.20;;;;;;5013200;28;20073;-60
2023/01/18 06:24:48;;;;;;;9.63;3.50;;;4.30;97.80;;;;;;5012530;28;20476;-60
2023/01/18 06:27:14;;;;;;;8.45;3.40;;;4.40;99.90;;;;;;5006653;28;20074;-60
2023/01/18 06:29:39;;;;;;;9.25;2.75;;;4.60;99.90;;;;;;5006825;28;20066;-60
2023/01/18 06:32:05;;;;;;;10.60;3.17;;;4.60;99.90;;;;;;5000995;28;20039;-60
2023/01/18 06:34:32;;;;;;;5.85;3.00;;;4.70;99.90;;;;;;5006568;28;20128;-60
2023/01/18 06:36:57;;;;;;;6.90;2.95;;;4.70;99.90;;;;;;5004303;28;20106;-60
2023/01/18 06:39:23;;;;;;;6.75;2.83;;;4.60;99.90;;;;;;5001476;28;20050;-61
2023/01/18 06:41:49;;;;;;;15.48;2.47;;;4.50;98.50;;;;;;5004652;28;20069;-60
2023/01/18 06:44:14;;;;;;;11.80;2.53;;;4.20;92.00;;;;;;5003486;28;20061;-60
2023/01/18 06:46:42;;;;;;;7.75;2.10;;;4.00;84.90;;;;;;4999422;28;20029;-60
2023/01/18 06:49:08;;;;;;;10.23;2.20;;;4.10;92.40;;;;;;5002107;28;20074;-60
2023/01/18 06:51:34;;;;;;;4.40;2.28;;;4.30;99.10;;;;;;5002663;28;20069;-60
2023/01/18 06:53:59;;;;;;;11.48;2.83;;;4.40;99.90;;;;;;5004594;28;20060;-60
2023/01/18 06:56:25;;;;;;;8.88;3.33;;;4.50;99.90;;;;;;5005218;28;20053;-61
2023/01/18 06:58:54;;;;;;;6.75;2.22;;;4.50;92.20;;;;;;5011588;28;20042;-60
2023/01/18 07:01:19;;;;;;;13.27;2.53;;;4.30;69.70;;;;;;5006663;28;20038;-60
2023/01/18 07:03:45;;;;;;;7.72;2.33;;;4.10;59.40;;;;;;4999807;28;20045;-61
2023/01/18 07:06:11;;;;;;;3.97;2.00;;;4.00;52.80;;;;;;5000616;28;20081;-61
2023/01/18 07:08:38;;;;;;;9.70;2.80;;;3.90;48.40;;;;;;5011984;28;20096;-60
2023/01/18 07:11:09;;;;;;;8.48;3.00;;;3.90;43.20;;;;;;5008775;28;20079;-61
2023/01/18 07:13:38;;;;;;;8.55;2.60;;;3.90;44.00;;;;;;5003211;28;20120;-60
2023/01/18 07:16:05;;;;;;;5.97;2.58;;;4.10;54.60;;;;;;5001627;28;20033;-60
2023/01/18 07:18:30;;;;;;;7.57;2.60;;;4.30;65.30;;;;;;5009458;28;20504;-61
2023/01/18 07:21:01;;;;;;;6.95;2.63;;;4.50;73.00;;;;;;5006180;28;20116;-61
2023/01/18 07:23:28;;;;;;;14.07;2.67;;;4.50;77.50;;;;;;5008019;28;20134;-61
2023/01/18 07:26:15;;;;;;;7.80;2.50;;;4.60;79.30;;;;;;5008965;28;20076;-61
2023/01/18 07:28:41;;;;;;;9.40;2.60;;;4.50;75.90;;;;;;5000697;28;20038;-61
2023/01/18 07:31:07;;;;;;;6.40;2.42;;;4.10;54.20;;;;;;5002828;28;20041;-60
2023/01/18 07:33:34;;;;;;;7.57;2.50;;;3.80;44.40;;;;;;4997791;28;20357;-61
2023/01/18 07:36:00;;;;;;;7.15;2.30;;;3.50;36.20;;;;;;4995615;28;20109;-61
2023/01/18 07:38:26;;;;;;;7.65;3.03;;;3.60;53.30;;;;;;4995332;28;20154;-60
2023/01/18 07:41:01;;;;;;;10.65;2.88;;;3.80;72.80;;;;;;4998438;28;20038;-61
2023/01/18 07:43:28;;;;;;;9.40;2.63;;;4.00;90.30;;;;;;5000670;28;20447;-62
2023/01/18 07:45:56;;;;;;;9.80;2.83;;;4.20;95.30;;;;;;5000044;28;20046;-61
2023/01/18 07:48:22;;;;;;;6.70;2.70;;;4.30;98.60;;;;;;5013416;28;20037;-60
2023/01/18 07:50:58;;;;;;;6.10;2.63;;;4.00;95.00;;;;;;5012610;28;20501;-60
2023/01/18 07:53:25;;;;;;;6.65;2.95;;;3.70;98.00;;;;;;5007734;28;20394;-61
2023/01/18 07:55:51;;;;;;;6.90;3.15;;;3.60;99.90;;;;;;4993760;28;20030;-61
2023/01/18 07:58:17;;;;;;;10.90;2.75;;;3.60;99.90;;;;;;5009962;28;20040;-61
2023/01/18 08:00:43;;;;;;;5.75;2.75;;;3.60;99.90;;;;;;5013500;28;20052;-60
2023/01/18 08:03:13;;;;;;;8.57;3.53;;;3.70;99.90;;;;;;5011841;28;20038;-61
2023/01/18 08:05:39;;;;;;;7.40;3.08;;;3.70;99.90;;;;;;4996364;28;20072;-61
2023/01/18 08:08:07;;;;;;;7.22;2.90;;;3.80;99.90;;;;;;5002819;28;20041;-61
2023/01/18 08:10:33;;;;;;;6.90;2.80;;;3.60;99.90;;;;;;5002428;28;21822;-61
2023/01/18 08:12:58;;;;;;;10.40;3.03;;;3.60;99.90;;;;;;5004181;28;20045;-61
2023/01/18 08:15:24;;;;;;;9.40;2.72;;;3.70;99.90;;;;;;5001229;28;20042;-61
2023/01/18 08:17:50;;;;;;;9.23;2.80;;;3.80;99.90;;;;;;4999639;28;20038;-61
2023/01/18 08:20:15;;;;;;;8.38;3.10;;;3.90;99.90;;;;;;5002138;28;20057;-62
2023/01/18 08:22:41;;;;;;;8.13;3.20;;;4.00;99.90;;;;;;4999632;28;20080;-61
2023/01/18 08:25:07;;;;;;;8.10;2.97;;;4.20;99.90;;;;;;5001823;28;20037;-61
2023/01/18 08:27:32;;;;;;;309.08;13.98;;;4.30;99.90;;;;;;5002451;28;20037;-61
2023/01/18 08:29:58;;;;;;;8.60;2.88;;;4.40;99.90;;;;;;5006794;28;20038;-61
2023/01/18 08:32:23;;;;;;;11.90;3.25;;;4.40;99.90;;;;;;5006067;28;20507;-61
2023/01/18 08:34:49;;;;;;;7.85;3.00;;;4.30;99.90;;;;;;5010741;28;20038;-61
2023/01/18 08:37:16;;;;;;;6.80;3.13;;;4.20;99.90;;;;;;4999623;28;20035;-61
2023/01/18 08:39:41;;;;;;;8.77;3.20;;;4.20;99.90;;;;;;5004287;28;20046;-61
2023/01/18 08:42:10;;;;;;;7.28;3.05;;;4.30;99.90;;;;;;4999632;28;20033;-61
2023/01/18 08:44:36;;;;;;;6.95;2.80;;;4.30;99.90;;;;;;4997014;28;20061;-62
2023/01/18 08:47:02;;;;;;;6.43;2.80;;;4.30;99.90;;;;;;4999355;28;20104;-61
2023/01/18 08:49:28;;;;;;;10.75;2.85;;;4.30;99.90;;;;;;5009827;28;20048;-61
2023/01/18 08:51:55;;;;;;;6.55;3.20;;;4.50;99.90;;;;;;5012081;28;20029;-60
2023/01/18 08:54:21;;;;;;;8.65;3.38;;;4.40;99.90;;;;;;5004999;28;20045;-61
2023/01/18 08:56:46;;;;;;;9.63;3.45;;;4.40;99.90;;;;;;5004036;28;20046;-61
2023/01/18 08:59:12;;;;;;;7.63;3.28;;;4.50;99.90;;;;;;5010900;28;20048;-61
2023/01/18 09:01:37;;;;;;;7.82;2.92;;;4.60;99.90;;;;;;5003966;28;20448;-61
2023/01/18 09:04:03;;;;;;;7.13;2.78;;;4.80;99.90;;;;;;5001361;28;20037;-61
2023/01/18 09:06:30;;;;;;;8.48;2.92;;;4.90;99.90;;;;;;4998440;28;20490;-61
2023/01/18 09:08:56;;;;;;;9.95;3.30;;;5.00;99.90;;;;;;5002986;28;20093;-61
2023/01/18 09:11:22;;;;;;;7.00;2.83;;;5.30;99.90;;;;;;5003091;28;20073;-62
2023/01/18 09:13:52;;;;;;;7.70;3.00;;;5.40;99.90;;;;;;5009032;28;20033;-61
2023/01/18 09:16:18;;;;;;;5.45;2.78;;;5.50;99.90;;;;;;5006928;28;20030;-61
2023/01/18 09:18:44;;;;;;;6.72;2.90;;;5.50;99.90;;;;;;5009074;28;20096;-61
2023/01/18 09:21:12;;;;;;;4.65;2.53;;;5.50;99.90;;;;;;5000952;28;20384;-61
2023/01/18 09:23:39;;;;;;;9.07;2.97;;;5.50;99.90;;;;;;5002226;28;20419;-61
2023/01/18 09:26:13;;;;;;;8.60;3.10;;;5.50;99.90;;;;;;5000789;28;20054;-61
2023/01/18 09:28:38;;;;;;;5.15;2.65;;;5.60;99.90;;;;;;5007068;28;20045;-61
2023/01/18 09:31:08;;;;;;;10.10;2.92;;;5.60;99.90;;;;;;5003177;28;20034;-61
2023/01/18 09:33:34;;;;;;;6.63;2.90;;;5.70;99.90;;;;;;5017860;28;20404;-61
2023/01/18 09:36:06;;;;;;;9.05;4.47;;;5.70;99.90;;;;;;5011512;28;20061;-61
2023/01/18 09:38:33;;;;;;;6.22;2.75;;;5.90;99.90;;;;;;5005413;28;20070;-61
2023/01/18 09:40:59;;;;;;;8.05;2.90;;;6.00;99.90;;;;;;5006305;28;20041;-61
2023/01/18 09:43:38;;;;;;;6.78;2.95;;;6.00;99.90;;;;;;5006787;28;20048;-62
2023/01/18 09:46:07;;;;;;;5.72;3.10;;;6.20;99.90;;;;;;5010988;28;20491;-61
2023/01/18 09:48:38;;;;;;;9.00;3.67;;;6.20;99.90;;;;;;4996673;28;20043;-61
2023/01/18 09:51:11;;;;;;;9.95;3.58;;;6.30;99.90;;;;;;5003005;28;20049;-62
2023/01/18 09:54:06;;;;;;;8.85;2.70;;;6.30;99.90;;;;;;5013717;28;20092;-61
2023/01/18 09:57:02;;;;;;;7.10;2.85;;;6.20;99.90;;;;;;4995101;28;20109;-61
2023/01/18 09:59:51;;;;;;;7.10;2.67;;;6.30;99.90;;;;;;4998239;28;20108;-61
2023/01/18 10:02:38;;;;;;;6.63;2.15;;;6.50;99.90;;;;;;4996713;28;20066;-62
2023/01/18 10:05:21;;;;;;;8.68;2.60;;;6.70;99.90;;;;;;5010082;28;20056;-62
2023/01/18 10:08:03;;;;;;;7.68;2.58;;;6.80;99.90;;;;;;5003885;28;20037;-62
2023/01/18 10:10:46;;;;;;;8.85;3.15;;;6.80;99.90;;;;;;5004838;28;20050;-62
2023/01/18 10:13:36;;;;;;;5.88;2.38;;;6.60;97.00;;;;;;5005443;28;20099;-61
2023/01/18 10:16:07;;;;;;;9.93;2.60;;;6.60;91.60;;;;;;5004972;28;20054;-61
2023/01/18 10:18:44;;;;;;;6.50;2.10;;;6.70;91.30;;;;;;5005518;28;20187;-61
2023/01/18 10:21:17;;;;;;;5.47;2.30;;;6.90;89.20;;;;;;4999792;28;20031;-61
2023/01/18 10:24:02;;;;;;;9.40;2.33;;;6.90;81.50;;;;;;5003201;28;20464;-62
2023/01/18 10:26:30;;;;;;;5.00;2.00;;;6.80;64.50;;;;;;5008806;28;20038;-61
2023/01/18 10:29:07;;;;;;;6.07;2.05;;;6.80;57.30;;;;;;5001485;28;20054;-61
2023/01/18 10:31:51;;;;;;;5.95;1.92;;;6.70;52.10;;;;;;5010001;28;20084;-61
2023/01/18 10:34:19;;;;;;;6.47;2.38;;;6.60;50.10;;;;;;4997894;28;20042;-61
2023/01/18 10:36:51;;;;;;;5.32;2.03;;;6.50;50.00;;;;;;5003803;28;20096;-62
2023/01/18 10:39:34;;;;;;;4.93;1.92;;;6.40;49.20;;;;;;4998490;28;20547;-61
2023/01/18 10:42:03;;;;;;;9.30;2.22;;;6.50;50.70;;;;;;5002484;28;20388;-61
2023/01/18 10:44:28;;;;;;;4.88;2.05;;;6.50;62.00;;;;;;5004895;28;20034;-61
2023/01/18 10:46:56;;;;;;;4.32;1.70;;;6.70;65.50;;;;;;5006820;28;20034;-61
2023/01/18 10:49:37;;;;;;;6.10;2.50;;;6.90;66.60;;;;;;5010164;28;20049;-61
2023/01/18 10:52:30;;;;;;;10.05;2.30;;;7.00;66.90;;;;;;5005797;28;20056;-61
2023/01/18 10:55:07;;;;;;;7.13;2.30;;;7.20;64.60;;;;;;4994316;28;20054;-62
2023/01/18 10:57:54;;;;;;;10.10;2.40;;;7.40;61.00;;;;;;5012296;28;20037;-61
2023/01/18 11:00:32;;;;;;;7.57;2.17;;;7.30;50.90;;;;;;5004189;28;20503;-62
2023/01/18 11:02:59;;;;;;;5.60;2.13;;;6.80;29.40;;;;;;5007585;28;20061;-61
2023/01/18 11:05:32;;;;;;;6.93;2.42;;;6.60;27.70;;;;;;4999704;28;20056;-62
2023/01/18 11:08:21;;;;;;;6.93;2.03;;;6.30;39.70;;;;;;5006513;28;20045;-62
2023/01/18 11:11:02;;;;;;;7.78;2.35;;;6.80;71.40;;;;;;4994712;28;20050;-61
2023/01/18 11:13:32;;;;;;;6.55;2.10;;;7.00;70.60;;;;;;5000311;28;20034;-61
2023/01/18 11:16:12;;;;;;;7.85;1.90;;;7.00;57.30;;;;;;4993915;28;20488;-62
2023/01/18 11:18:58;;;;;;;6.40;2.95;;;6.90;50.10;;;;;;5002491;28;20133;-61
2023/01/18 11:21:29;;;;;;;10.45;2.10;;;6.90;48.80;;;;;;5000769;28;20049;-61
2023/01/18 11:23:55;;;;;;;5.70;1.80;;;7.10;49.10;;;;;;5004415;28;20030;-61
2023/01/18 11:26:22;;;;;;;6.72;2.35;;;7.00;36.90;;;;;;4998420;28;20626;-61
2023/01/18 11:29:04;;;;;;;4.00;1.80;;;6.90;26.80;;;;;;5006221;28;20045;-61
2023/01/18 11:31:44;;;;;;;5.90;2.10;;;6.70;22.70;;;;;;5008284;28;20049;-61
2023/01/18 11:34:18;;;;;;;9.00;2.17;;;6.60;22.00;;;;;;5006518;28;20042;-60
2023/01/18 11:36:44;;;;;;;7.03;1.83;;;6.40;25.50;;;;;;5007840;28;20531;-62
2023/01/18 11:39:20;;;;;;;9.32;2.50;;;6.40;35.80;;;;;;5003543;28;20073;-61
2023/01/18 11:41:45;;;;;;;9.82;2.55;;;6.50;48.40;;;;;;5011236;28;20122;-60
2023/01/18 11:44:26;;;;;;;7.93;2.60;;;6.50;68.50;;;;;;5002083;28;20118;-61
2023/01/18 11:46:58;;;;;;;6.95;2.53;;;6.60;78.10;;;;;;5009443;28;20104;-61
2023/01/18 11:50:02;;;;;;;6.47;2.25;;;6.70;76.90;;;;;;5005729;28;20038;-61
2023/01/18 11:52:50;;;;;;;17.50;2.65;;;6.80;76.40;;;;;;4999008;28;20049;-61
2023/01/18 11:55:31;;;;;;;4.57;1.88;;;6.70;62.30;;;;;;4998895;28;20046;-61
2023/01/18 11:57:58;;;;;;;6.60;2.00;;;6.60;61.50;;;;;;5006925;28;20037;-60
2023/01/18 12:00:27;;;;;;;9.45;2.65;;;6.50;55.30;;;;;;4994477;28;20056;-61
2023/01/18 12:03:14;;;;;;;5.30;1.65;;;6.30;55.10;;;;;;5003515;28;20069;-61
2023/01/18 12:06:00;;;;;;;6.47;1.80;;;6.50;58.60;;;;;;4995862;28;20050;-63
2023/01/18 12:08:39;;;;;;;8.65;2.15;;;6.50;66.50;;;;;;5010486;28;20122;-61
2023/01/18 12:11:27;;;;;;;2.72;1.60;;;6.60;66.40;;;;;;5008709;28;20164;-61
2023/01/18 12:14:11;;;;;;;5.28;1.60;;;6.40;67.00;;;;;;5000485;28;20140;-60
2023/01/18 12:16:53;;;;;;;10.40;1.92;;;6.30;67.70;;;;;;4998149;28;20042;-61
2023/01/18 12:19:44;;;;;;;5.13;1.63;;;6.10;62.00;;;;;;5009899;28;20049;-61
2023/01/18 12:22:30;;;;;;;11.18;1.98;;;6.10;75.90;;;;;;5009927;28;20052;-61
2023/01/18 12:25:28;;;;;;;8.73;1.77;;;6.30;91.40;;;;;;5003128;28;20045;-61
2023/01/18 12:28:30;;;;;;;5.85;1.98;;;6.40;93.50;;;;;;5008211;28;20462;-60
2023/01/18 12:31:42;;;;;;;3.95;1.70;;;6.40;91.50;;;;;;5009285;28;20096;-61
2023/01/18 12:34:14;;;;;;;4.97;1.60;;;6.20;68.20;;;;;;4994311;28;20039;-61
2023/01/18 12:36:44;;;;;;;6.32;1.65;;;5.90;65.60;;;;;;5006246;28;20052;-61
2023/01/18 12:39:27;;;;;;;11.38;2.05;;;5.80;59.20;;;;;;4996469;28;20050;-60
2023/01/18 12:41:57;;;;;;;4.82;1.65;;;5.90;77.70;;;;;;5008817;28;20092;-61
2023/01/18 12:45:08;;;;;;;5.53;1.52;;;6.10;91.10;;;;;;5004750;28;20050;-61
2023/01/18 12:47:39;;;;;;;6.65;1.80;;;6.30;90.30;;;;;;4981363;28;20054;-61
2023/01/18 12:50:17;;;;;;;6.80;1.90;;;6.40;89.00;;;;;;5001699;28;20500;-61
2023/01/18 12:52:49;;;;;;;6.70;1.85;;;6.20;82.80;;;;;;4999913;28;20048;-60
2023/01/18 12:55:21;;;;;;;6.80;1.73;;;6.00;81.90;;;;;;5006846;28;20046;-60
2023/01/18 12:57:49;;;;;;;3.85;1.40;;;5.90;78.80;;;;;;5003570;28;20056;-61
2023/01/18 13:00:38;;;;;;;4.22;1.55;;;5.80;81.20;;;;;;5011041;28;20042;-60
2023/01/18 13:03:11;;;;;;;5.22;1.63;;;6.00;98.60;;;;;;4992108;28;20053;-61
2023/01/18 13:05:56;;;;;;;8.25;1.92;;;6.30;99.90;;;;;;4993550;28;20133;-61
2023/01/18 13:08:38;;;;;;;3.63;1.45;;;6.30;99.40;;;;;;4996985;28;20038;-60
2023/01/18 13:11:43;;;;;;;4.72;1.58;;;6.40;99.90;;;;;;5009274;28;20038;-60
2023/01/18 13:14:20;;;;;;;4.03;1.60;;;6.10;95.40;;;;;;4972158;28;20407;-62
2023/01/18 13:17:07;;;;;;;5.63;1.80;;;5.90;94.70;;;;;;4995871;28;20041;-61
2023/01/18 13:19:44;;;;;;;8.77;1.70;;;5.90;97.30;;;;;;4993391;28;20042;-60
2023/01/18 13:22:09;;;;;;;8.25;1.85;;;6.10;99.90;;;;;;4992098;28;20047;-60
2023/01/18 13:25:17;;;;;;;4.13;1.50;;;6.40;99.90;;;;;;4992635;28;20042;-60
2023/01/18 13:28:17;;;;;;;7.13;1.63;;;6.40;99.90;;;;;;4995918;28;20524;-61
2023/01/18 13:30:54;;;;;;;8.93;2.13;;;6.30;99.90;;;;;;4971859;28;20054;-61
2023/01/18 13:33:25;;;;;;;4.13;1.58;;;6.10;99.90;;;;;;5007657;28;20144;-61
2023/01/18 13:35:56;;;;;;;9.15;2.03;;;6.10;99.90;;;;;;4995534;28;20121;-61
2023/01/18 13:38:25;;;;;;;9.25;1.95;;;6.00;99.90;;;;;;4998894;28;20030;-60
2023/01/18 13:41:00;;;;;;;9.73;2.72;;;5.80;99.90;;;;;;5012871;28;20033;-61
2023/01/18 13:43:31;;;;;;;17.63;2.85;;;5.70;99.90;;;;;;5008596;28;20033;-60
2023/01/18 13:46:21;;;;;;;15.18;3.50;;;5.90;99.90;;;;;;5008147;28;20092;-61
2023/01/18 13:48:54;;;;;;;12.93;3.00;;;5.90;99.90;;;;;;5004040;28;20073;-60
2023/01/18 13:51:38;;;;;;;7.80;2.00;;;5.70;99.90;;;;;;5008658;28;20042;-60
2023/01/18 13:54:05;;;;;;;13.05;2.83;;;5.60;99.90;;;;;;5014277;28;20038;-60
2023/01/18 13:56:33;;;;;;;8.43;2.30;;;5.60;99.90;;;;;;5003628;28;20530;-61